createdAt,value
2022-09-15T00:02:25.231Z,14.60
2022-09-15T00:04:51.892Z,14.40
2022-09-15T00:07:18.475Z,14.20
2022-09-15T00:09:44.980Z,14.10
2022-09-15T00:12:11.620Z,14.20
2022-09-15T00:14:38.192Z,14.20
2022-09-15T00:17:04.828Z,14.10
2022-09-15T00:19:31.407Z,14.10
2022-09-15T00:21:57.936Z,14.10
2022-09-15T00:24:24.451Z,14.20
2022-09-15T00:26:51.189Z,14.20
2022-09-15T00:29:18.672Z,14.20
2022-09-15T00:31:45.403Z,14.20
2022-09-15T00:34:13.962Z,14.20
2022-09-15T00:36:40.827Z,14.30
2022-09-15T00:39:07.418Z,14.30
2022-09-15T00:41:34.544Z,14.40
2022-09-15T00:44:04.147Z,14.40
2022-09-15T00:46:40.788Z,14.30
2022-09-15T00:49:15.571Z,14.30
2022-09-15T00:51:51.119Z,14.20
2022-09-15T00:54:46.887Z,14.30
2022-09-15T00:57:25.693Z,14.40
2022-09-15T00:59:55.284Z,14.40
2022-09-15T01:02:25.239Z,14.30
2022-09-15T01:04:58.031Z,14.40
2022-09-15T01:07:33.495Z,14.40
2022-09-15T01:10:05.363Z,14.40
2022-09-15T01:12:32.490Z,14.50
2022-09-15T01:15:01.652Z,14.50
2022-09-15T01:17:53.423Z,14.50
2022-09-15T01:20:57.178Z,14.50
2022-09-15T01:23:51.496Z,14.50
2022-09-15T01:26:47.025Z,14.40
2022-09-15T01:30:04.744Z,14.50
2022-09-15T01:33:04.410Z,14.50
2022-09-15T01:35:51.474Z,14.50
2022-09-15T01:38:47.547Z,14.50
2022-09-15T01:41:44.861Z,14.40
2022-09-15T01:44:34.033Z,14.40
2022-09-15T01:47:05.277Z,14.40
2022-09-15T01:49:39.589Z,14.50
2022-09-15T01:52:06.551Z,14.50
2022-09-15T01:54:39.785Z,14.50
2022-09-15T01:57:06.396Z,14.50
2022-09-15T01:59:34.740Z,14.40
2022-09-15T02:02:09.815Z,14.40
2022-09-15T02:04:48.047Z,14.40
2022-09-15T02:07:25.726Z,14.40
2022-09-15T02:10:13.088Z,14.40
2022-09-15T02:12:52.361Z,14.40
2022-09-15T02:15:28.987Z,14.40
2022-09-15T02:18:00.566Z,14.40
2022-09-15T02:20:48.407Z,14.50
2022-09-15T02:23:21.254Z,14.40
2022-09-15T02:25:52.346Z,14.40
2022-09-15T02:28:23.913Z,14.50
2022-09-15T02:30:53.356Z,14.60
2022-09-15T02:33:24.037Z,14.60
2022-09-15T02:35:51.845Z,14.50
2022-09-15T02:38:18.521Z,14.40
2022-09-15T02:40:46.076Z,14.40
2022-09-15T02:43:15.862Z,14.40
2022-09-15T02:45:43.178Z,14.40
2022-09-15T02:48:09.824Z,14.50
2022-09-15T02:50:37.730Z,14.50
2022-09-15T02:53:04.800Z,14.50
2022-09-15T02:55:31.314Z,14.50
2022-09-15T02:57:58.902Z,14.50
2022-09-15T03:00:26.949Z,14.50
2022-09-15T03:02:54.483Z,14.50
2022-09-15T03:05:27.013Z,14.50
2022-09-15T03:07:54.412Z,14.60
2022-09-15T03:10:21.820Z,14.50
2022-09-15T03:12:50.915Z,14.50
2022-09-15T03:15:20.082Z,14.50
2022-09-15T03:17:47.927Z,14.50
2022-09-15T03:20:21.211Z,14.50
2022-09-15T03:22:49.621Z,14.50
2022-09-15T03:25:17.332Z,14.50
2022-09-15T03:27:45.572Z,14.50
2022-09-15T03:30:13.171Z,14.50
2022-09-15T03:32:39.978Z,14.50
2022-09-15T03:35:07.088Z,14.40
2022-09-15T03:37:34.255Z,14.40
2022-09-15T03:40:00.957Z,14.40
2022-09-15T03:42:28.123Z,14.30
2022-09-15T03:44:54.739Z,14.30
2022-09-15T03:47:21.299Z,14.30
2022-09-15T03:49:47.852Z,14.40
2022-09-15T03:52:14.389Z,14.30
2022-09-15T03:54:41.279Z,14.30
2022-09-15T03:57:07.784Z,14.30
2022-09-15T03:59:34.304Z,14.30
2022-09-15T04:02:00.890Z,14.30
2022-09-15T04:04:27.505Z,14.30
2022-09-15T04:06:54.155Z,14.30
2022-09-15T04:09:21.371Z,14.20
2022-09-15T04:11:47.995Z,14.30
2022-09-15T04:14:14.617Z,14.30
2022-09-15T04:16:41.182Z,14.20
2022-09-15T04:19:07.873Z,14.20
2022-09-15T04:21:34.644Z,14.10
2022-09-15T04:24:01.441Z,14.10
2022-09-15T04:26:33.581Z,14.10
2022-09-15T04:29:04.280Z,14.00
2022-09-15T04:31:32.649Z,14.00
2022-09-15T04:33:59.669Z,14.10
2022-09-15T04:36:28.309Z,14.10
2022-09-15T04:38:55.937Z,14.10
2022-09-15T04:41:24.467Z,14.10
2022-09-15T04:43:51.633Z,14.00
2022-09-15T04:46:18.874Z,14.10
2022-09-15T04:48:46.477Z,14.00
2022-09-15T04:51:16.034Z,14.00
2022-09-15T04:53:44.268Z,13.90
2022-09-15T04:56:16.308Z,13.90
2022-09-15T04:58:51.191Z,13.80
2022-09-15T05:01:23.934Z,13.90
2022-09-15T05:03:50.885Z,13.90
2022-09-15T05:06:21.962Z,14.00
2022-09-15T05:08:53.835Z,14.00
2022-09-15T05:11:21.121Z,13.90
2022-09-15T05:13:48.448Z,13.90
2022-09-15T05:16:21.026Z,14.00
2022-09-15T05:18:49.627Z,13.80
2022-09-15T05:21:18.572Z,13.80
2022-09-15T05:23:45.229Z,13.80
2022-09-15T05:26:13.864Z,13.80
2022-09-15T05:28:40.805Z,13.80
2022-09-15T05:31:10.219Z,13.90
2022-09-15T05:33:38.464Z,13.90
2022-09-15T05:36:05.998Z,14.00
2022-09-15T05:38:32.959Z,14.00
2022-09-15T05:41:07.238Z,14.00
2022-09-15T05:43:35.446Z,14.00
2022-09-15T05:46:02.780Z,14.00
2022-09-15T05:48:29.565Z,14.00
2022-09-15T05:50:56.762Z,14.00
2022-09-15T05:53:23.893Z,14.10
2022-09-15T05:55:55.961Z,14.10
2022-09-15T05:58:23.266Z,14.10
2022-09-15T06:00:50.085Z,14.10
2022-09-15T06:03:17.359Z,14.10
2022-09-15T06:05:43.954Z,14.10
2022-09-15T06:08:10.703Z,14.00
2022-09-15T06:10:37.422Z,14.10
2022-09-15T06:13:04.066Z,14.10
2022-09-15T06:15:31.575Z,14.20
2022-09-15T06:17:58.356Z,14.20
2022-09-15T06:20:25.453Z,14.10
2022-09-15T06:22:53.776Z,14.20
2022-09-15T06:25:20.306Z,14.20
2022-09-15T06:27:49.179Z,14.20
2022-09-15T06:30:16.899Z,14.30
2022-09-15T06:32:47.895Z,14.40
2022-09-15T06:35:15.235Z,14.40
2022-09-15T06:37:41.783Z,14.30
2022-09-15T06:40:08.975Z,14.30
2022-09-15T06:42:35.568Z,14.20
2022-09-15T06:45:02.124Z,14.20
2022-09-15T06:47:33.711Z,14.30
2022-09-15T06:50:00.949Z,14.20
2022-09-15T06:52:28.015Z,14.20
2022-09-15T06:54:54.672Z,14.20
2022-09-15T06:57:21.251Z,14.20
2022-09-15T06:59:47.804Z,14.30
2022-09-15T07:02:14.545Z,14.30
2022-09-15T07:04:41.200Z,14.40
2022-09-15T07:07:07.942Z,14.50
2022-09-15T07:09:34.468Z,14.60
2022-09-15T07:12:01.223Z,14.70
2022-09-15T07:14:27.728Z,14.70
2022-09-15T07:16:54.313Z,14.60
2022-09-15T07:19:20.885Z,14.70
2022-09-15T07:21:47.420Z,14.70
2022-09-15T07:24:14.438Z,14.80
2022-09-15T07:26:41.772Z,14.90
2022-09-15T07:29:09.637Z,14.90
2022-09-15T07:31:38.639Z,14.90
2022-09-15T07:34:06.315Z,14.90
2022-09-15T07:36:32.963Z,14.90
2022-09-15T07:38:59.497Z,15.00
2022-09-15T07:41:29.580Z,15.00
2022-09-15T07:43:58.301Z,15.10
2022-09-15T07:46:26.389Z,15.20
2022-09-15T07:48:56.275Z,15.30
2022-09-15T07:51:23.841Z,15.30
2022-09-15T07:53:51.192Z,15.40
2022-09-15T07:56:18.646Z,15.40
2022-09-15T07:58:46.666Z,15.50
2022-09-15T08:01:16.391Z,15.60
2022-09-15T08:03:44.857Z,15.50
2022-09-15T08:06:12.799Z,15.50
2022-09-15T08:08:40.669Z,15.60
2022-09-15T08:11:17.688Z,15.90
2022-09-15T08:13:52.382Z,15.90
2022-09-15T08:16:22.726Z,15.80
2022-09-15T08:18:52.879Z,15.80
2022-09-15T08:21:20.852Z,15.70
2022-09-15T08:23:56.152Z,15.80
2022-09-15T08:26:23.444Z,15.80
2022-09-15T08:28:50.104Z,15.90
2022-09-15T08:31:17.370Z,16.10
2022-09-15T08:33:48.979Z,16.20
2022-09-15T08:36:15.500Z,16.40
2022-09-15T08:38:44.447Z,16.50
2022-09-15T08:41:24.788Z,16.50
2022-09-15T08:44:16.568Z,16.40
2022-09-15T08:47:12.527Z,16.60
2022-09-15T08:50:10.483Z,16.90
2022-09-15T08:52:50.242Z,17.00
2022-09-15T08:55:33.644Z,16.70
2022-09-15T08:58:00.492Z,16.80
2022-09-15T09:00:27.147Z,17.00
2022-09-15T09:03:22.715Z,17.10
2022-09-15T09:05:58.213Z,17.20
2022-09-15T09:08:36.828Z,17.20
2022-09-15T09:11:31.448Z,17.30
2022-09-15T09:14:23.261Z,17.10
2022-09-15T09:17:28.566Z,16.90
2022-09-15T09:20:42.544Z,16.70
2022-09-15T09:23:21.491Z,16.50
2022-09-15T09:25:49.680Z,16.50
2022-09-15T09:28:46.950Z,16.50
2022-09-15T09:31:22.787Z,16.60
2022-09-15T09:34:14.848Z,16.50
2022-09-15T09:36:42.629Z,16.40
2022-09-15T09:39:16.516Z,16.30
2022-09-15T09:41:44.016Z,16.30
2022-09-15T09:44:12.998Z,16.10
2022-09-15T09:46:39.629Z,16.00
2022-09-15T09:52:31.388Z,16.00
2022-09-15T09:55:03.693Z,16.10
2022-09-15T09:57:39.923Z,16.20
2022-09-15T10:00:38.386Z,16.20
2022-09-15T10:03:32.691Z,16.30
2022-09-15T10:06:15.509Z,16.30
2022-09-15T10:08:58.468Z,16.40
2022-09-15T10:12:01.741Z,16.50
2022-09-15T10:14:33.263Z,16.60
2022-09-15T10:17:13.185Z,16.60
2022-09-15T10:19:42.645Z,16.60
2022-09-15T10:22:10.525Z,16.60
2022-09-15T10:24:39.803Z,16.70
2022-09-15T10:27:08.605Z,17.00
2022-09-15T10:29:39.680Z,17.00
2022-09-15T10:32:25.564Z,17.00
2022-09-15T10:35:19.748Z,17.00
2022-09-15T10:37:57.949Z,17.20
2022-09-15T10:40:58.189Z,17.20
2022-09-15T10:43:55.570Z,17.20
2022-09-15T10:46:48.192Z,17.30
2022-09-15T10:49:42.895Z,17.40
2022-09-15T10:52:29.887Z,17.40
2022-09-15T10:55:36.743Z,17.60
2022-09-15T10:58:33.565Z,17.60
2022-09-15T11:01:28.001Z,17.50
2022-09-15T11:04:02.900Z,17.30
2022-09-15T11:06:43.013Z,17.20
2022-09-15T11:09:25.780Z,16.50
2022-09-15T11:11:58.830Z,14.80
2022-09-15T11:14:51.608Z,14.30
2022-09-15T11:17:50.381Z,13.90
2022-09-15T11:20:39.128Z,13.80
2022-09-15T11:23:16.505Z,13.80
2022-09-15T11:25:49.218Z,13.80
2022-09-15T11:28:24.956Z,14.00
2022-09-15T11:31:02.331Z,13.90
2022-09-15T11:33:42.859Z,14.10
2022-09-15T11:36:36.343Z,14.40
2022-09-15T11:39:25.826Z,14.70
2022-09-15T11:41:58.569Z,14.90
2022-09-15T11:44:30.160Z,15.20
2022-09-15T11:47:05.387Z,15.50
2022-09-15T11:49:56.970Z,15.50
2022-09-15T11:52:57.463Z,15.70
2022-09-15T11:55:45.226Z,15.80
2022-09-15T11:58:23.926Z,15.80
2022-09-15T12:00:59.428Z,16.00
2022-09-15T12:03:56.041Z,16.20
2022-09-15T12:06:34.729Z,16.50
2022-09-15T12:09:03.776Z,16.50
2022-09-15T12:11:38.010Z,16.60
2022-09-15T12:14:05.678Z,16.90
2022-09-15T12:16:34.406Z,17.10
2022-09-15T12:19:33.586Z,17.10
2022-09-15T12:22:19.527Z,17.20
2022-09-15T12:25:01.108Z,17.10
2022-09-15T12:27:28.530Z,17.40
2022-09-15T12:30:01.145Z,17.40
2022-09-15T12:32:35.190Z,17.40
2022-09-15T12:35:17.543Z,17.70
2022-09-15T12:37:52.299Z,17.70
2022-09-15T12:40:38.290Z,17.70
2022-09-15T12:43:11.256Z,17.80
2022-09-15T12:45:38.860Z,17.80
2022-09-15T12:48:21.680Z,17.40
2022-09-15T12:50:59.554Z,17.10
2022-09-15T12:56:11.504Z,16.60
2022-09-15T12:58:41.996Z,16.40
2022-09-15T13:01:26.685Z,16.40
2022-09-15T13:03:57.750Z,16.40
2022-09-15T13:06:29.073Z,16.30
2022-09-15T13:09:25.436Z,16.30
2022-09-15T13:11:53.833Z,14.90
2022-09-15T13:14:37.561Z,13.90
2022-09-15T13:17:12.579Z,13.50
2022-09-15T13:19:46.598Z,13.50
2022-09-15T13:22:35.296Z,13.40
2022-09-15T13:25:14.310Z,13.40
2022-09-15T13:27:48.260Z,13.40
2022-09-15T13:30:47.580Z,13.50
2022-09-15T13:39:43.476Z,14.00
2022-09-15T13:42:29.064Z,14.10
2022-09-15T13:45:23.414Z,14.40
2022-09-15T13:48:05.566Z,14.60
2022-09-15T13:50:40.932Z,14.80
2022-09-15T13:53:42.462Z,14.90
2022-09-15T13:56:23.675Z,15.10
2022-09-15T13:58:58.183Z,15.30
2022-09-15T14:01:35.933Z,15.50
2022-09-15T14:04:09.599Z,15.60
2022-09-15T14:06:37.853Z,15.80
2022-09-15T14:09:20.181Z,15.80
2022-09-15T14:12:05.109Z,15.90
2022-09-15T14:14:52.839Z,16.20
2022-09-15T14:20:26.436Z,16.50
2022-09-15T14:22:54.300Z,16.70
2022-09-15T14:25:21.409Z,16.90
2022-09-15T14:27:51.092Z,16.90
2022-09-15T14:30:31.839Z,16.70
2022-09-15T14:33:01.427Z,16.30
2022-09-15T14:35:36.881Z,15.40
2022-09-15T14:38:03.652Z,14.70
2022-09-15T14:40:36.518Z,14.50
2022-09-15T14:43:04.144Z,14.40
2022-09-15T14:48:40.461Z,14.40
2022-09-15T14:51:34.104Z,14.40
2022-09-15T14:54:01.668Z,14.50
2022-09-15T14:56:32.786Z,14.30
2022-09-15T14:59:07.349Z,14.50
2022-09-15T15:01:51.954Z,14.60
2022-09-15T15:04:33.343Z,14.90
2022-09-15T15:07:08.259Z,15.10
2022-09-15T15:09:46.959Z,15.20
2022-09-15T15:12:24.012Z,15.40
2022-09-15T15:14:55.120Z,15.60
2022-09-15T15:17:36.853Z,15.70
2022-09-15T15:20:09.116Z,15.90
2022-09-15T15:22:40.589Z,16.00
2022-09-15T15:25:29.914Z,16.20
2022-09-15T15:27:57.899Z,16.10
2022-09-15T15:30:32.374Z,16.00
2022-09-15T15:33:03.359Z,16.00
2022-09-15T15:35:31.795Z,16.00
2022-09-15T15:38:11.626Z,16.00
2022-09-15T15:40:40.488Z,16.00
2022-09-15T15:43:22.452Z,16.00
2022-09-15T15:45:58.262Z,16.00
2022-09-15T15:48:26.748Z,16.10
2022-09-15T15:50:54.036Z,16.20
2022-09-15T15:53:20.700Z,16.20
2022-09-15T15:55:47.352Z,16.20
2022-09-15T15:58:15.149Z,16.20
2022-09-15T16:00:50.502Z,16.20
2022-09-15T16:03:18.710Z,16.00
2022-09-15T16:05:48.378Z,15.90
2022-09-15T16:08:29.633Z,15.80
2022-09-15T16:10:57.879Z,15.80
2022-09-15T16:13:25.279Z,15.70
2022-09-15T16:16:00.119Z,15.70
2022-09-15T16:18:27.523Z,15.70
2022-09-15T16:20:54.391Z,15.70
2022-09-15T16:23:22.982Z,15.60
2022-09-15T16:25:57.544Z,14.80
2022-09-15T16:28:24.203Z,14.60
2022-09-15T16:30:50.812Z,14.60
2022-09-15T16:33:19.732Z,14.50
2022-09-15T16:35:55.405Z,14.60
2022-09-15T16:38:25.801Z,14.60
2022-09-15T16:40:54.682Z,14.50
2022-09-15T16:43:22.189Z,14.50
2022-09-15T16:45:50.407Z,14.60
2022-09-15T16:48:22.720Z,14.50
2022-09-15T16:51:16.132Z,14.40
2022-09-15T16:53:39.317Z,14.40
2022-09-15T16:56:10.716Z,14.40
2022-09-15T16:58:37.427Z,14.50
2022-09-15T17:01:04.518Z,14.60
2022-09-15T17:03:31.190Z,14.60
2022-09-15T17:05:59.625Z,14.50
2022-09-15T17:08:29.413Z,14.40
2022-09-15T17:10:57.847Z,14.40
2022-09-15T17:13:29.308Z,14.50
2022-09-15T17:15:57.498Z,14.60
2022-09-15T17:18:24.463Z,14.50
2022-09-15T17:20:51.152Z,14.40
2022-09-15T17:23:30.953Z,14.30
2022-09-15T17:25:59.883Z,14.30
2022-09-15T17:28:28.765Z,14.30
2022-09-15T17:31:02.481Z,14.30
2022-09-15T17:33:31.044Z,14.30
2022-09-15T17:35:57.861Z,14.30
2022-09-15T17:38:25.097Z,14.30
2022-09-15T17:40:52.855Z,14.30
2022-09-15T17:43:21.638Z,14.30
2022-09-15T17:45:49.681Z,14.20
2022-09-15T17:48:16.954Z,14.10
2022-09-15T17:50:45.176Z,14.00
2022-09-15T17:53:13.092Z,14.00
2022-09-15T17:55:39.940Z,13.90
2022-09-15T17:58:06.913Z,13.90
2022-09-15T18:00:36.764Z,13.90
2022-09-15T18:03:19.059Z,13.90
2022-09-15T18:05:45.720Z,13.80
2022-09-15T18:08:12.867Z,13.80
2022-09-15T18:10:41.894Z,13.80
2022-09-15T18:13:14.484Z,13.80
2022-09-15T18:15:42.755Z,13.80
2022-09-15T18:18:13.951Z,13.70
2022-09-15T18:20:41.836Z,13.70
2022-09-15T18:23:17.764Z,13.60
2022-09-15T18:25:46.860Z,13.70
2022-09-15T18:28:15.905Z,13.70
2022-09-15T18:30:45.091Z,13.70
2022-09-15T18:33:21.409Z,13.60
2022-09-15T18:35:49.967Z,13.70
2022-09-15T18:38:17.183Z,13.70
2022-09-15T18:40:49.300Z,13.80
2022-09-15T18:43:16.681Z,13.90
2022-09-15T18:45:43.292Z,14.00
2022-09-15T18:48:12.854Z,14.00
2022-09-15T18:50:40.484Z,14.00
2022-09-15T18:53:07.163Z,14.10
2022-09-15T18:55:33.875Z,14.10
2022-09-15T18:58:01.240Z,14.10
2022-09-15T19:00:29.096Z,14.10
2022-09-15T19:02:57.962Z,14.10
2022-09-15T19:05:25.314Z,14.00
2022-09-15T19:07:55.998Z,13.90
2022-09-15T19:10:23.349Z,13.70
2022-09-15T19:12:50.084Z,13.60
2022-09-15T19:15:16.718Z,13.50
2022-09-15T19:17:43.776Z,13.40
2022-09-15T19:20:13.228Z,13.30
2022-09-15T19:22:40.717Z,13.40
2022-09-15T19:25:08.465Z,13.40
2022-09-15T19:27:35.759Z,13.30
2022-09-15T19:30:02.348Z,13.30
2022-09-15T19:32:28.924Z,13.30
2022-09-15T19:34:56.283Z,13.30
2022-09-15T19:37:23.076Z,13.20
2022-09-15T19:39:50.388Z,13.20
2022-09-15T19:42:17.430Z,13.20
2022-09-15T19:44:44.370Z,13.00
2022-09-15T19:47:11.053Z,13.10
2022-09-15T19:49:37.620Z,13.10
2022-09-15T19:52:06.189Z,13.10
2022-09-15T19:54:34.298Z,13.00
2022-09-15T19:57:01.410Z,12.90
2022-09-15T19:59:31.243Z,12.90
2022-09-15T20:01:59.479Z,12.80
2022-09-15T20:04:26.944Z,12.90
2022-09-15T20:06:53.637Z,13.00
2022-09-15T20:09:20.179Z,13.00
2022-09-15T20:11:46.881Z,13.00
2022-09-15T20:14:13.907Z,13.00
2022-09-15T20:16:40.795Z,12.90
2022-09-15T20:19:07.469Z,12.80
2022-09-15T20:21:49.838Z,12.80
2022-09-15T20:24:18.449Z,12.80
2022-09-15T20:26:45.052Z,12.80
2022-09-15T20:29:11.896Z,12.70
2022-09-15T20:31:40.530Z,12.70
2022-09-15T20:34:07.460Z,12.60
2022-09-15T20:36:36.550Z,12.60
2022-09-15T20:39:05.955Z,12.60
2022-09-15T20:41:32.573Z,12.50
2022-09-15T20:43:59.564Z,12.50
2022-09-15T20:46:29.155Z,12.40
2022-09-15T20:48:55.756Z,12.40
2022-09-15T20:51:25.461Z,12.40
2022-09-15T20:53:55.205Z,12.30
2022-09-15T20:56:26.279Z,12.30
2022-09-15T20:58:54.528Z,12.30
2022-09-15T21:04:14.785Z,12.30
2022-09-15T21:06:41.403Z,12.30
2022-09-15T21:09:09.542Z,12.20
2022-09-15T21:11:36.719Z,12.10
2022-09-15T21:14:03.704Z,12.10
2022-09-15T21:16:30.939Z,12.10
2022-09-15T21:18:58.678Z,12.10
2022-09-15T21:21:30.536Z,12.00
2022-09-15T21:24:01.022Z,12.00
2022-09-15T21:26:30.347Z,12.00
2022-09-15T21:28:57.457Z,12.00
2022-09-15T21:31:27.453Z,12.00
2022-09-15T21:33:54.881Z,12.00
2022-09-15T21:36:29.599Z,12.00
2022-09-15T21:38:58.097Z,12.00
2022-09-15T21:41:28.956Z,12.00
2022-09-15T21:43:56.174Z,12.00
2022-09-15T21:46:25.136Z,12.00
2022-09-15T21:48:51.825Z,11.90
2022-09-15T21:51:24.348Z,11.90
2022-09-15T21:53:53.469Z,11.80
2022-09-15T21:56:20.625Z,11.90
2022-09-15T21:58:47.280Z,11.80
2022-09-15T22:01:19.914Z,11.90
2022-09-15T22:04:04.578Z,11.90
2022-09-15T22:06:34.166Z,12.00
2022-09-15T22:09:06.111Z,12.00
2022-09-15T22:11:33.195Z,11.90
2022-09-15T22:14:02.654Z,11.90
2022-09-15T22:16:29.586Z,11.90
2022-09-15T22:18:56.378Z,11.80
2022-09-15T22:21:25.740Z,11.90
2022-09-15T22:23:54.859Z,11.90
2022-09-15T22:26:34.282Z,11.90
2022-09-15T22:29:01.512Z,11.90
2022-09-15T22:31:29.017Z,11.90
2022-09-15T22:33:56.324Z,11.90
2022-09-15T22:36:29.954Z,11.90
2022-09-15T22:39:03.634Z,11.80
2022-09-15T22:41:32.100Z,11.80
2022-09-15T22:43:58.780Z,11.80
2022-09-15T22:46:25.445Z,11.80
2022-09-15T22:48:52.043Z,11.80
2022-09-15T22:51:18.621Z,11.80
2022-09-15T22:53:45.196Z,11.80
2022-09-15T22:56:14.562Z,11.80
2022-09-15T22:58:43.753Z,11.90
2022-09-15T23:01:19.753Z,11.80
2022-09-15T23:03:54.378Z,11.80
2022-09-15T23:06:21.807Z,11.80
2022-09-15T23:08:56.773Z,11.80
2022-09-15T23:11:24.733Z,11.80
2022-09-15T23:13:53.148Z,11.80
2022-09-15T23:16:20.561Z,11.70
2022-09-15T23:18:47.116Z,11.70
2022-09-15T23:21:14.325Z,11.70
2022-09-15T23:23:43.095Z,11.70
2022-09-15T23:26:11.598Z,11.60
2022-09-15T23:28:41.668Z,11.60
2022-09-15T23:31:11.769Z,11.60
2022-09-15T23:33:39.074Z,11.60
2022-09-15T23:36:07.923Z,11.60
2022-09-15T23:38:39.493Z,11.60
2022-09-15T23:41:07.121Z,11.60
2022-09-15T23:43:34.420Z,11.60
2022-09-15T23:46:01.917Z,11.60
2022-09-15T23:48:29.002Z,11.50
2022-09-15T23:50:55.809Z,11.60
2022-09-15T23:53:22.423Z,11.40
2022-09-15T23:55:49.022Z,11.40
2022-09-15T23:58:19.089Z,11.30
